sensor_id;sensor_type;location;lat;lon;timestamp;P1;durP1;ratioP1;P2;durP2;ratioP2
11957;SDS011;6039;52.576;13.348;2023-05-24T00:03:27;7.10;;;1.90;;
11957;SDS011;6039;52.576;13.348;2023-05-24T00:08:36;5.30;;;2.00;;
11957;SDS011;6039;52.576;13.348;2023-05-24T00:13:40;1.77;;;1.43;;
11957;SDS011;6039;52.576;13.348;2023-05-24T00:18:44;5.53;;;2.27;;
11957;SDS011;6039;52.576;13.348;2023-05-24T00:23:51;4.13;;;1.70;;
11957;SDS011;6039;52.576;13.348;2023-05-24T00:28:54;3.80;;;1.73;;
11957;SDS011;6039;52.576;13.348;2023-05-24T00:33:58;7.03;;;2.00;;
11957;SDS011;6039;52.576;13.348;2023-05-24T00:39:05;3.90;;;1.87;;
11957;SDS011;6039;52.576;13.348;2023-05-24T00:44:09;5.63;;;1.97;;
11957;SDS011;6039;52.576;13.348;2023-05-24T00:49:13;6.23;;;2.20;;
11957;SDS011;6039;52.576;13.348;2023-05-24T00:54:19;4.77;;;1.87;;
11957;SDS011;6039;52.576;13.348;2023-05-24T00:59:25;9.27;;;2.13;;
11957;SDS011;6039;52.576;13.348;2023-05-24T01:04:30;4.33;;;2.03;;
11957;SDS011;6039;52.576;13.348;2023-05-24T01:09:40;6.37;;;2.30;;
11957;SDS011;6039;52.576;13.348;2023-05-24T01:14:52;4.33;;;1.73;;
11957;SDS011;6039;52.576;13.348;2023-05-24T01:20:04;4.53;;;2.10;;
11957;SDS011;6039;52.576;13.348;2023-05-24T01:25:16;5.77;;;1.93;;
11957;SDS011;6039;52.576;13.348;2023-05-24T01:30:27;4.27;;;2.00;;
11957;SDS011;6039;52.576;13.348;2023-05-24T01:35:32;2.40;;;1.50;;
11957;SDS011;6039;52.576;13.348;2023-05-24T01:40:39;6.80;;;1.90;;
11957;SDS011;6039;52.576;13.348;2023-05-24T01:45:47;5.00;;;2.07;;
11957;SDS011;6039;52.576;13.348;2023-05-24T01:50:56;4.33;;;1.53;;
11957;SDS011;6039;52.576;13.348;2023-05-24T01:56:01;2.63;;;1.70;;
11957;SDS011;6039;52.576;13.348;2023-05-24T02:01:09;5.80;;;1.80;;
11957;SDS011;6039;52.576;13.348;2023-05-24T02:06:14;4.63;;;2.10;;
11957;SDS011;6039;52.576;13.348;2023-05-24T02:11:18;4.67;;;1.93;;
11957;SDS011;6039;52.576;13.348;2023-05-24T02:16:25;6.00;;;1.83;;
11957;SDS011;6039;52.576;13.348;2023-05-24T02:21:29;3.97;;;1.97;;
11957;SDS011;6039;52.576;13.348;2023-05-24T02:26:33;7.63;;;2.10;;
11957;SDS011;6039;52.576;13.348;2023-05-24T02:31:40;4.40;;;1.57;;
11957;SDS011;6039;52.576;13.348;2023-05-24T02:36:44;6.73;;;2.00;;
11957;SDS011;6039;52.576;13.348;2023-05-24T02:41:47;4.30;;;1.53;;
11957;SDS011;6039;52.576;13.348;2023-05-24T02:46:54;5.47;;;2.23;;
11957;SDS011;6039;52.576;13.348;2023-05-24T02:51:58;3.50;;;1.87;;
11957;SDS011;6039;52.576;13.348;2023-05-24T02:57:02;5.13;;;2.10;;
11957;SDS011;6039;52.576;13.348;2023-05-24T03:02:09;4.43;;;1.97;;
11957;SDS011;6039;52.576;13.348;2023-05-24T03:07:15;5.97;;;2.30;;
11957;SDS011;6039;52.576;13.348;2023-05-24T03:12:21;4.93;;;1.80;;
11957;SDS011;6039;52.576;13.348;2023-05-24T03:17:28;6.93;;;2.20;;
11957;SDS011;6039;52.576;13.348;2023-05-24T03:22:32;4.60;;;1.70;;
11957;SDS011;6039;52.576;13.348;2023-05-24T03:27:35;6.17;;;2.57;;
11957;SDS011;6039;52.576;13.348;2023-05-24T03:32:42;7.33;;;2.03;;
11957;SDS011;6039;52.576;13.348;2023-05-24T03:37:46;7.57;;;2.40;;
11957;SDS011;6039;52.576;13.348;2023-05-24T03:42:50;10.70;;;2.77;;
11957;SDS011;6039;52.576;13.348;2023-05-24T03:47:56;10.43;;;2.50;;
11957;SDS011;6039;52.576;13.348;2023-05-24T03:53:00;7.50;;;2.00;;
11957;SDS011;6039;52.576;13.348;2023-05-24T03:58:04;5.60;;;2.20;;
11957;SDS011;6039;52.576;13.348;2023-05-24T04:03:11;7.43;;;2.57;;
11957;SDS011;6039;52.576;13.348;2023-05-24T04:08:14;5.23;;;2.10;;
11957;SDS011;6039;52.576;13.348;2023-05-24T04:13:18;6.77;;;1.90;;
11957;SDS011;6039;52.576;13.348;2023-05-24T04:18:25;6.30;;;2.00;;
11957;SDS011;6039;52.576;13.348;2023-05-24T04:23:29;3.97;;;1.93;;
11957;SDS011;6039;52.576;13.348;2023-05-24T04:28:32;6.37;;;1.93;;
11957;SDS011;6039;52.576;13.348;2023-05-24T04:33:39;5.83;;;1.83;;
11957;SDS011;6039;52.576;13.348;2023-05-24T04:38:43;5.20;;;2.07;;
11957;SDS011;6039;52.576;13.348;2023-05-24T04:43:47;5.73;;;2.17;;
11957;SDS011;6039;52.576;13.348;2023-05-24T04:48:54;3.10;;;1.93;;
11957;SDS011;6039;52.576;13.348;2023-05-24T04:53:58;7.70;;;2.30;;
11957;SDS011;6039;52.576;13.348;2023-05-24T04:59:07;6.30;;;2.40;;
11957;SDS011;6039;52.576;13.348;2023-05-24T05:04:14;5.47;;;2.43;;
11957;SDS011;6039;52.576;13.348;2023-05-24T05:09:18;8.97;;;2.60;;
11957;SDS011;6039;52.576;13.348;2023-05-24T05:14:23;7.33;;;2.70;;
11957;SDS011;6039;52.576;13.348;2023-05-24T05:19:30;9.87;;;2.43;;
11957;SDS011;6039;52.576;13.348;2023-05-24T05:24:34;6.23;;;2.17;;
11957;SDS011;6039;52.576;13.348;2023-05-24T05:29:38;7.17;;;2.57;;
11957;SDS011;6039;52.576;13.348;2023-05-24T05:34:45;5.57;;;2.10;;
11957;SDS011;6039;52.576;13.348;2023-05-24T05:39:49;8.53;;;2.73;;
11957;SDS011;6039;52.576;13.348;2023-05-24T05:44:53;5.27;;;2.00;;
11957;SDS011;6039;52.576;13.348;2023-05-24T05:49:59;8.73;;;2.73;;
11957;SDS011;6039;52.576;13.348;2023-05-24T05:55:03;8.70;;;3.43;;
11957;SDS011;6039;52.576;13.348;2023-05-24T06:00:09;7.10;;;2.30;;
11957;SDS011;6039;52.576;13.348;2023-05-24T06:05:16;11.73;;;2.73;;
11957;SDS011;6039;52.576;13.348;2023-05-24T06:10:20;11.77;;;2.60;;
11957;SDS011;6039;52.576;13.348;2023-05-24T06:15:24;8.20;;;2.70;;
11957;SDS011;6039;52.576;13.348;2023-05-24T06:20:31;10.83;;;2.47;;
11957;SDS011;6039;52.576;13.348;2023-05-24T06:25:35;6.83;;;2.57;;
11957;SDS011;6039;52.576;13.348;2023-05-24T06:30:42;8.33;;;3.20;;
11957;SDS011;6039;52.576;13.348;2023-05-24T06:35:49;8.97;;;3.67;;
11957;SDS011;6039;52.576;13.348;2023-05-24T06:40:53;11.57;;;2.63;;
11957;SDS011;6039;52.576;13.348;2023-05-24T06:45:57;10.07;;;3.27;;
11957;SDS011;6039;52.576;13.348;2023-05-24T06:51:04;12.07;;;3.73;;
11957;SDS011;6039;52.576;13.348;2023-05-24T06:56:08;6.87;;;3.07;;
11957;SDS011;6039;52.576;13.348;2023-05-24T07:01:12;7.10;;;3.10;;
11957;SDS011;6039;52.576;13.348;2023-05-24T07:06:18;6.90;;;3.30;;
11957;SDS011;6039;52.576;13.348;2023-05-24T07:11:22;8.13;;;3.37;;
11957;SDS011;6039;52.576;13.348;2023-05-24T07:16:26;12.40;;;3.40;;
11957;SDS011;6039;52.576;13.348;2023-05-24T07:21:33;12.23;;;2.83;;
11957;SDS011;6039;52.576;13.348;2023-05-24T07:26:37;7.23;;;3.10;;
11957;SDS011;6039;52.576;13.348;2023-05-24T07:31:41;8.87;;;3.00;;
11957;SDS011;6039;52.576;13.348;2023-05-24T07:36:47;6.70;;;3.47;;
11957;SDS011;6039;52.576;13.348;2023-05-24T07:41:51;13.10;;;3.27;;
11957;SDS011;6039;52.576;13.348;2023-05-24T07:46:55;11.23;;;3.10;;
11957;SDS011;6039;52.576;13.348;2023-05-24T07:52:04;7.00;;;3.00;;
11957;SDS011;6039;52.576;13.348;2023-05-24T07:57:07;9.80;;;3.40;;
11957;SDS011;6039;52.576;13.348;2023-05-24T08:02:12;8.03;;;3.17;;
11957;SDS011;6039;52.576;13.348;2023-05-24T08:07:18;7.67;;;2.77;;
11957;SDS011;6039;52.576;13.348;2023-05-24T08:12:22;9.43;;;3.40;;
11957;SDS011;6039;52.576;13.348;2023-05-24T08:17:29;9.13;;;3.23;;
11957;SDS011;6039;52.576;13.348;2023-05-24T08:22:35;5.97;;;2.83;;
11957;SDS011;6039;52.576;13.348;2023-05-24T08:27:39;6.90;;;3.03;;
11957;SDS011;6039;52.576;13.348;2023-05-24T08:32:43;6.10;;;2.80;;
11957;SDS011;6039;52.576;13.348;2023-05-24T08:37:50;12.03;;;2.83;;
11957;SDS011;6039;52.576;13.348;2023-05-24T08:42:54;10.03;;;3.23;;
11957;SDS011;6039;52.576;13.348;2023-05-24T08:47:58;8.30;;;3.60;;
11957;SDS011;6039;52.576;13.348;2023-05-24T08:53:05;6.43;;;2.53;;
11957;SDS011;6039;52.576;13.348;2023-05-24T08:58:09;6.77;;;2.90;;
11957;SDS011;6039;52.576;13.348;2023-05-24T09:03:13;7.83;;;3.27;;
11957;SDS011;6039;52.576;13.348;2023-05-24T09:08:21;6.67;;;2.50;;
11957;SDS011;6039;52.576;13.348;2023-05-24T09:13:25;7.23;;;2.60;;
11957;SDS011;6039;52.576;13.348;2023-05-24T09:18:30;4.97;;;2.20;;
11957;SDS011;6039;52.576;13.348;2023-05-24T09:23:37;6.80;;;2.73;;
11957;SDS011;6039;52.576;13.348;2023-05-24T09:28:41;6.30;;;2.60;;
11957;SDS011;6039;52.576;13.348;2023-05-24T09:33:47;7.93;;;2.70;;
11957;SDS011;6039;52.576;13.348;2023-05-24T09:39:01;7.00;;;2.80;;
11957;SDS011;6039;52.576;13.348;2023-05-24T09:44:11;6.57;;;2.80;;
11957;SDS011;6039;52.576;13.348;2023-05-24T09:49:16;7.33;;;3.03;;
11957;SDS011;6039;52.576;13.348;2023-05-24T09:54:23;4.97;;;3.13;;
11957;SDS011;6039;52.576;13.348;2023-05-24T09:59:27;9.70;;;3.07;;
11957;SDS011;6039;52.576;13.348;2023-05-24T10:04:35;5.60;;;2.73;;
11957;SDS011;6039;52.576;13.348;2023-05-24T10:09:42;5.83;;;2.60;;
11957;SDS011;6039;52.576;13.348;2023-05-24T10:14:47;4.60;;;2.53;;
11957;SDS011;6039;52.576;13.348;2023-05-24T10:19:51;6.27;;;2.47;;
11957;SDS011;6039;52.576;13.348;2023-05-24T10:24:58;6.63;;;2.90;;
11957;SDS011;6039;52.576;13.348;2023-05-24T10:30:06;7.97;;;3.10;;
11957;SDS011;6039;52.576;13.348;2023-05-24T10:35:17;4.67;;;2.27;;
11957;SDS011;6039;52.576;13.348;2023-05-24T10:40:24;5.50;;;2.63;;
11957;SDS011;6039;52.576;13.348;2023-05-24T10:45:29;3.83;;;2.53;;
11957;SDS011;6039;52.576;13.348;2023-05-24T10:50:34;6.70;;;2.60;;
11957;SDS011;6039;52.576;13.348;2023-05-24T11:01:00;2.90;;;1.90;;
11957;SDS011;6039;52.576;13.348;2023-05-24T11:06:04;3.30;;;2.00;;
11957;SDS011;6039;52.576;13.348;2023-05-24T11:11:12;4.73;;;1.83;;
11957;SDS011;6039;52.576;13.348;2023-05-24T11:16:31;4.00;;;2.17;;
11957;SDS011;6039;52.576;13.348;2023-05-24T11:21:36;5.97;;;2.10;;
11957;SDS011;6039;52.576;13.348;2023-05-24T11:26:43;4.03;;;2.30;;
11957;SDS011;6039;52.576;13.348;2023-05-24T11:31:48;3.87;;;2.10;;
11957;SDS011;6039;52.576;13.348;2023-05-24T11:36:53;4.43;;;2.10;;
11957;SDS011;6039;52.576;13.348;2023-05-24T11:42:00;3.17;;;1.93;;
11957;SDS011;6039;52.576;13.348;2023-05-24T11:47:07;6.70;;;2.00;;
11957;SDS011;6039;52.576;13.348;2023-05-24T11:52:11;3.87;;;2.23;;
11957;SDS011;6039;52.576;13.348;2023-05-24T11:57:18;4.20;;;2.33;;
11957;SDS011;6039;52.576;13.348;2023-05-24T12:02:28;7.40;;;2.50;;
11957;SDS011;6039;52.576;13.348;2023-05-24T12:07:32;2.90;;;1.73;;
11957;SDS011;6039;52.576;13.348;2023-05-24T12:12:43;3.77;;;2.10;;
11957;SDS011;6039;52.576;13.348;2023-05-24T12:17:48;4.53;;;2.27;;
11957;SDS011;6039;52.576;13.348;2023-05-24T12:22:52;3.43;;;2.10;;
11957;SDS011;6039;52.576;13.348;2023-05-24T12:27:59;5.07;;;2.17;;
11957;SDS011;6039;52.576;13.348;2023-05-24T12:33:05;3.60;;;2.30;;
11957;SDS011;6039;52.576;13.348;2023-05-24T12:38:09;4.07;;;2.20;;
11957;SDS011;6039;52.576;13.348;2023-05-24T12:43:20;3.23;;;2.40;;
11957;SDS011;6039;52.576;13.348;2023-05-24T12:48:24;3.77;;;2.10;;
11957;SDS011;6039;52.576;13.348;2023-05-24T12:53:28;5.47;;;2.30;;
11957;SDS011;6039;52.576;13.348;2023-05-24T12:58:34;3.43;;;2.20;;
11957;SDS011;6039;52.576;13.348;2023-05-24T13:03:38;4.63;;;2.40;;
11957;SDS011;6039;52.576;13.348;2023-05-24T13:08:42;3.33;;;2.17;;
11957;SDS011;6039;52.576;13.348;2023-05-24T13:13:49;4.20;;;2.43;;
11957;SDS011;6039;52.576;13.348;2023-05-24T13:18:53;4.00;;;2.00;;
11957;SDS011;6039;52.576;13.348;2023-05-24T13:23:57;3.57;;;2.37;;
11957;SDS011;6039;52.576;13.348;2023-05-24T13:29:03;5.27;;;2.40;;
11957;SDS011;6039;52.576;13.348;2023-05-24T13:34:08;6.97;;;2.40;;
11957;SDS011;6039;52.576;13.348;2023-05-24T13:39:12;3.13;;;1.97;;
11957;SDS011;6039;52.576;13.348;2023-05-24T13:44:19;3.33;;;2.10;;
11957;SDS011;6039;52.576;13.348;2023-05-24T13:49:23;4.73;;;2.60;;
11957;SDS011;6039;52.576;13.348;2023-05-24T13:54:28;4.57;;;2.23;;
11957;SDS011;6039;52.576;13.348;2023-05-24T13:59:34;5.30;;;2.13;;
11957;SDS011;6039;52.576;13.348;2023-05-24T14:04:38;6.93;;;2.60;;
11957;SDS011;6039;52.576;13.348;2023-05-24T14:09:42;3.73;;;1.83;;
11957;SDS011;6039;52.576;13.348;2023-05-24T14:14:49;3.27;;;1.87;;
11957;SDS011;6039;52.576;13.348;2023-05-24T14:19:53;2.47;;;1.80;;
11957;SDS011;6039;52.576;13.348;2023-05-24T14:24:57;6.03;;;2.43;;
11957;SDS011;6039;52.576;13.348;2023-05-24T14:30:04;2.43;;;1.90;;
11957;SDS011;6039;52.576;13.348;2023-05-24T14:35:09;3.50;;;1.90;;
11957;SDS011;6039;52.576;13.348;2023-05-24T14:40:13;4.27;;;2.27;;
11957;SDS011;6039;52.576;13.348;2023-05-24T14:45:19;5.33;;;2.10;;
11957;SDS011;6039;52.576;13.348;2023-05-24T14:50:23;2.73;;;2.10;;
11957;SDS011;6039;52.576;13.348;2023-05-24T14:55:27;3.97;;;1.73;;
11957;SDS011;6039;52.576;13.348;2023-05-24T15:00:34;4.37;;;2.17;;
11957;SDS011;6039;52.576;13.348;2023-05-24T15:05:38;3.80;;;2.20;;
11957;SDS011;6039;52.576;13.348;2023-05-24T15:10:43;7.60;;;2.57;;
11957;SDS011;6039;52.576;13.348;2023-05-24T15:15:49;4.30;;;2.03;;
11957;SDS011;6039;52.576;13.348;2023-05-24T15:20:56;3.53;;;2.33;;
11957;SDS011;6039;52.576;13.348;2023-05-24T15:26:00;4.30;;;2.30;;
11957;SDS011;6039;52.576;13.348;2023-05-24T15:31:07;3.73;;;2.13;;
11957;SDS011;6039;52.576;13.348;2023-05-24T15:36:12;4.60;;;2.27;;
11957;SDS011;6039;52.576;13.348;2023-05-24T15:41:16;6.03;;;2.57;;
11957;SDS011;6039;52.576;13.348;2023-05-24T15:46:22;3.47;;;2.40;;
11957;SDS011;6039;52.576;13.348;2023-05-24T15:51:26;3.73;;;2.10;;
11957;SDS011;6039;52.576;13.348;2023-05-24T15:56:30;3.40;;;2.40;;
11957;SDS011;6039;52.576;13.348;2023-05-24T16:01:37;4.70;;;2.03;;
11957;SDS011;6039;52.576;13.348;2023-05-24T16:06:41;4.97;;;2.23;;
11957;SDS011;6039;52.576;13.348;2023-05-24T16:11:46;3.97;;;2.53;;
11957;SDS011;6039;52.576;13.348;2023-05-24T16:16:53;5.20;;;2.30;;
11957;SDS011;6039;52.576;13.348;2023-05-24T16:21:58;3.77;;;2.33;;
11957;SDS011;6039;52.576;13.348;2023-05-24T16:27:02;3.00;;;2.20;;
11957;SDS011;6039;52.576;13.348;2023-05-24T16:32:10;5.67;;;2.30;;
11957;SDS011;6039;52.576;13.348;2023-05-24T16:37:14;5.90;;;2.60;;
11957;SDS011;6039;52.576;13.348;2023-05-24T16:42:18;3.73;;;2.30;;
11957;SDS011;6039;52.576;13.348;2023-05-24T16:47:24;4.40;;;2.20;;
11957;SDS011;6039;52.576;13.348;2023-05-24T16:52:28;6.33;;;2.40;;
11957;SDS011;6039;52.576;13.348;2023-05-24T16:57:32;4.00;;;2.00;;
11957;SDS011;6039;52.576;13.348;2023-05-24T17:02:40;3.90;;;2.20;;
11957;SDS011;6039;52.576;13.348;2023-05-24T17:07:47;4.90;;;2.30;;
11957;SDS011;6039;52.576;13.348;2023-05-24T17:12:52;6.63;;;2.20;;
11957;SDS011;6039;52.576;13.348;2023-05-24T17:17:59;4.43;;;2.37;;
11957;SDS011;6039;52.576;13.348;2023-05-24T17:23:03;4.80;;;2.23;;
11957;SDS011;6039;52.576;13.348;2023-05-24T17:28:07;4.83;;;2.60;;
11957;SDS011;6039;52.576;13.348;2023-05-24T17:33:13;4.93;;;2.53;;
11957;SDS011;6039;52.576;13.348;2023-05-24T17:38:17;6.43;;;2.30;;
11957;SDS011;6039;52.576;13.348;2023-05-24T17:43:21;5.53;;;2.63;;
11957;SDS011;6039;52.576;13.348;2023-05-24T17:48:31;5.43;;;2.30;;
11957;SDS011;6039;52.576;13.348;2023-05-24T17:53:35;3.63;;;2.23;;
11957;SDS011;6039;52.576;13.348;2023-05-24T17:58:42;4.07;;;2.00;;
11957;SDS011;6039;52.576;13.348;2023-05-24T18:03:48;4.40;;;2.50;;
11957;SDS011;6039;52.576;13.348;2023-05-24T18:08:52;5.50;;;2.70;;
11957;SDS011;6039;52.576;13.348;2023-05-24T18:13:57;6.13;;;2.50;;
11957;SDS011;6039;52.576;13.348;2023-05-24T18:19:05;5.43;;;2.60;;
11957;SDS011;6039;52.576;13.348;2023-05-24T18:24:09;4.70;;;2.20;;
11957;SDS011;6039;52.576;13.348;2023-05-24T18:29:13;6.93;;;2.47;;
11957;SDS011;6039;52.576;13.348;2023-05-24T18:34:20;5.70;;;2.17;;
11957;SDS011;6039;52.576;13.348;2023-05-24T18:39:24;6.67;;;2.40;;
11957;SDS011;6039;52.576;13.348;2023-05-24T18:44:32;4.30;;;2.10;;
11957;SDS011;6039;52.576;13.348;2023-05-24T18:49:39;4.23;;;2.63;;
11957;SDS011;6039;52.576;13.348;2023-05-24T18:54:43;5.40;;;3.07;;
11957;SDS011;6039;52.576;13.348;2023-05-24T18:59:47;4.80;;;2.40;;
11957;SDS011;6039;52.576;13.348;2023-05-24T19:05:00;5.53;;;2.70;;
11957;SDS011;6039;52.576;13.348;2023-05-24T19:10:04;7.10;;;2.87;;
11957;SDS011;6039;52.576;13.348;2023-05-24T19:15:09;5.93;;;2.93;;
11957;SDS011;6039;52.576;13.348;2023-05-24T19:20:16;5.57;;;2.70;;
11957;SDS011;6039;52.576;13.348;2023-05-24T19:25:20;7.43;;;2.63;;
11957;SDS011;6039;52.576;13.348;2023-05-24T19:30:26;4.93;;;2.90;;
11957;SDS011;6039;52.576;13.348;2023-05-24T19:35:33;3.47;;;2.57;;
11957;SDS011;6039;52.576;13.348;2023-05-24T19:40:37;3.23;;;2.33;;
11957;SDS011;6039;52.576;13.348;2023-05-24T19:45:41;5.40;;;2.87;;
11957;SDS011;6039;52.576;13.348;2023-05-24T19:50:49;6.20;;;3.00;;
11957;SDS011;6039;52.576;13.348;2023-05-24T19:55:53;6.83;;;3.03;;
11957;SDS011;6039;52.576;13.348;2023-05-24T20:00:57;8.80;;;3.77;;
11957;SDS011;6039;52.576;13.348;2023-05-24T20:06:04;5.53;;;2.93;;
11957;SDS011;6039;52.576;13.348;2023-05-24T20:11:08;7.43;;;3.17;;
11957;SDS011;6039;52.576;13.348;2023-05-24T20:16:13;4.77;;;2.87;;
11957;SDS011;6039;52.576;13.348;2023-05-24T20:21:20;4.73;;;2.70;;
11957;SDS011;6039;52.576;13.348;2023-05-24T20:26:24;6.03;;;3.10;;
11957;SDS011;6039;52.576;13.348;2023-05-24T20:31:28;5.53;;;3.13;;
11957;SDS011;6039;52.576;13.348;2023-05-24T20:36:35;4.53;;;3.23;;
11957;SDS011;6039;52.576;13.348;2023-05-24T20:41:39;3.87;;;2.83;;
11957;SDS011;6039;52.576;13.348;2023-05-24T20:46:43;6.47;;;3.00;;
11957;SDS011;6039;52.576;13.348;2023-05-24T20:51:49;6.63;;;3.10;;
11957;SDS011;6039;52.576;13.348;2023-05-24T20:56:53;6.30;;;3.53;;
11957;SDS011;6039;52.576;13.348;2023-05-24T21:01:58;6.80;;;3.13;;
11957;SDS011;6039;52.576;13.348;2023-05-24T21:07:05;6.80;;;3.50;;
11957;SDS011;6039;52.576;13.348;2023-05-24T21:12:09;5.30;;;3.40;;
11957;SDS011;6039;52.576;13.348;2023-05-24T21:17:13;8.90;;;3.33;;
11957;SDS011;6039;52.576;13.348;2023-05-24T21:22:20;5.77;;;3.23;;
11957;SDS011;6039;52.576;13.348;2023-05-24T21:27:24;5.70;;;3.23;;
11957;SDS011;6039;52.576;13.348;2023-05-24T21:32:28;7.67;;;3.97;;
11957;SDS011;6039;52.576;13.348;2023-05-24T21:37:34;7.80;;;3.50;;
11957;SDS011;6039;52.576;13.348;2023-05-24T21:42:38;5.47;;;3.43;;
11957;SDS011;6039;52.576;13.348;2023-05-24T21:47:43;6.63;;;3.30;;
11957;SDS011;6039;52.576;13.348;2023-05-24T21:52:49;5.20;;;3.37;;
11957;SDS011;6039;52.576;13.348;2023-05-24T21:57:54;4.53;;;3.07;;
11957;SDS011;6039;52.576;13.348;2023-05-24T22:02:58;6.73;;;3.77;;
11957;SDS011;6039;52.576;13.348;2023-05-24T22:08:04;6.80;;;3.20;;
11957;SDS011;6039;52.576;13.348;2023-05-24T22:13:08;7.27;;;3.50;;
11957;SDS011;6039;52.576;13.348;2023-05-24T22:18:12;6.03;;;3.77;;
11957;SDS011;6039;52.576;13.348;2023-05-24T22:23:19;7.20;;;3.53;;
11957;SDS011;6039;52.576;13.348;2023-05-24T22:28:23;7.43;;;3.73;;
11957;SDS011;6039;52.576;13.348;2023-05-24T22:33:27;7.50;;;3.77;;
11957;SDS011;6039;52.576;13.348;2023-05-24T22:38:34;10.47;;;3.97;;
11957;SDS011;6039;52.576;13.348;2023-05-24T22:43:38;7.63;;;3.23;;
11957;SDS011;6039;52.576;13.348;2023-05-24T22:48:42;5.83;;;3.70;;
11957;SDS011;6039;52.576;13.348;2023-05-24T22:53:51;7.60;;;3.87;;
11957;SDS011;6039;52.576;13.348;2023-05-24T22:58:55;7.53;;;3.33;;
11957;SDS011;6039;52.576;13.348;2023-05-24T23:03:59;6.57;;;3.67;;
11957;SDS011;6039;52.576;13.348;2023-05-24T23:09:06;5.13;;;3.60;;
11957;SDS011;6039;52.576;13.348;2023-05-24T23:14:10;9.50;;;3.67;;
11957;SDS011;6039;52.576;13.348;2023-05-24T23:19:16;6.00;;;3.20;;
11957;SDS011;6039;52.576;13.348;2023-05-24T23:24:22;9.43;;;3.73;;
11957;SDS011;6039;52.576;13.348;2023-05-24T23:29:26;8.77;;;3.80;;
11957;SDS011;6039;52.576;13.348;2023-05-24T23:34:30;4.33;;;3.37;;
11957;SDS011;6039;52.576;13.348;2023-05-24T23:39:37;5.60;;;3.40;;
11957;SDS011;6039;52.576;13.348;2023-05-24T23:44:41;9.83;;;3.50;;
11957;SDS011;6039;52.576;13.348;2023-05-24T23:49:45;5.83;;;3.40;;
11957;SDS011;6039;52.576;13.348;2023-05-24T23:54:52;5.10;;;3.17;;
11957;SDS011;6039;52.576;13.348;2023-05-24T23:59:56;7.00;;;3.60;;
